Goodland, KS

7:54 PM MDT on July 24, 2016 (GMT -0600)
Renner-Goodland Municipal | | Change Station
Active Advisory: Severe Thunderstorm Watch

Elev 3655 ft 39.37 °N, 101.69 °W | Updated 1 hour ago

Clear
Clear
84 °F
Feels Like 84 °F
N
15
Wind Variable Wind from East
Gusts 23 mph

Today
High -- | Low -- °F
--% Chance of Precip.
Yesterday
High -- | Low -- °F
Precip. -- in
Pressure 29.95 in
Visibility 10.0 miles
Clouds Clear
Heat Index 84 °F
Dew Point 61 °F
Humidity 46%
Rainfall 0.01 in
Snow Depth Not available.
5:40 AM 8:06 PM
Waning Gibbous, 71% visible
METAR KGLD 250053Z AUTO 09013G20KT 10SM CLR 29/16 A3009 RMK AO2 RAE48 SLP142 P0000 T02890161
Pressure 29.95 in
Visibility 10.0 miles
Clouds Clear
Heat Index 84 °F
Dew Point 61 °F
Humidity 46%
Rainfall 0.01 in
Snow Depth Not available.
5:40 AM 8:06 PM
Waning Gibbous, 71% visible
METAR KGLD 250053Z AUTO 09013G20KT 10SM CLR 29/16 A3009 RMK AO2 RAE48 SLP142 P0000 T02890161

10-Day Weather Forecast

Almanac

Astronomy

Jul. 24, 2016 Rise Set
Actual Time
Civil Twilight
Nautical Twilight
Astronomical Twilight
Moon
Length of Visible Light
Length of Day
Tomorrow will be .
, % of the Moon is Illuminated

Today's Extremes

State Highs State Lows

Community

WunderPhotos

Upload Photos

1,927,233 photos uploaded!

WunderBlog® & News

Nearby

Air Quality

  Air Quality AQ Index Pollutant
Not available.

Snow Depth

Station Depth Elevation

Earthquake Activity

City Distance Mag. Time & Date
Minimum magnitude displayed is 2.5.

Coastal Water Temperatures

Place Temperature

Stations

Nearby Weather Stations

Station Location Temp. Windchill Dew Point Humidity Wind Precip. Elev Updated Type
                   

Watches & Warnings

Severe Thunderstorm Watch
Issued: 7:43 PM MDT Jul. 24, 2016 – National Weather Service

Severe Thunderstorm Watch 414 remains in effect until 900 PM MDT

KS
. Kansas counties included are

Cheyenne Greeley Sherman
Wallace